createdAt,value
2023-05-19T00:01:19.127Z,4.70
2023-05-19T00:03:54.256Z,4.07
2023-05-19T00:06:27.924Z,3.90
2023-05-19T00:08:58.679Z,4.93
2023-05-19T00:11:26.938Z,5.18
2023-05-19T00:13:54.991Z,4.93
2023-05-19T00:16:22.933Z,5.78
2023-05-19T00:18:49.790Z,4.85
2023-05-19T00:21:16.816Z,3.88
2023-05-19T00:23:43.618Z,4.35
2023-05-19T00:26:10.824Z,4.50
2023-05-19T00:28:37.296Z,5.88
2023-05-19T00:31:05.476Z,5.57
2023-05-19T00:33:33.811Z,5.03
2023-05-19T00:36:03.381Z,3.88
2023-05-19T00:38:35.025Z,4.60
2023-05-19T00:41:02.668Z,3.22
2023-05-19T00:43:30.425Z,4.75
2023-05-19T00:45:57.627Z,4.75
2023-05-19T00:48:25.564Z,7.35
2023-05-19T00:50:54.881Z,3.70
2023-05-19T00:53:22.994Z,4.97
2023-05-19T00:55:49.495Z,4.03
2023-05-19T00:58:16.667Z,4.70
2023-05-19T01:00:43.349Z,3.28
2023-05-19T01:03:13.035Z,3.42
2023-05-19T01:05:54.781Z,4.22
2023-05-19T01:08:21.270Z,3.90
2023-05-19T01:10:47.983Z,3.67
2023-05-19T01:13:15.031Z,5.00
2023-05-19T01:16:13.111Z,4.05
2023-05-19T01:18:58.384Z,5.03
2023-05-19T01:21:48.192Z,6.10
2023-05-19T01:24:27.933Z,3.80
2023-05-19T01:27:18.468Z,3.78
2023-05-19T01:29:50.702Z,4.30
2023-05-19T01:32:19.582Z,3.35
2023-05-19T01:34:48.252Z,3.40
2023-05-19T01:37:17.727Z,4.90
2023-05-19T01:39:45.155Z,4.80
2023-05-19T01:42:12.830Z,3.92
2023-05-19T01:44:39.486Z,3.20
2023-05-19T01:47:06.174Z,3.22
2023-05-19T01:49:32.633Z,4.15
2023-05-19T01:51:59.110Z,4.78
2023-05-19T01:54:25.579Z,3.88
2023-05-19T01:57:10.107Z,4.57
2023-05-19T02:00:05.697Z,4.32
2023-05-19T02:03:03.915Z,3.10
2023-05-19T02:05:54.838Z,5.85
2023-05-19T02:08:38.561Z,3.03
2023-05-19T02:11:14.920Z,4.95
2023-05-19T02:13:44.159Z,3.17
2023-05-19T02:16:13.254Z,3.83
2023-05-19T02:18:40.546Z,3.05
2023-05-19T02:21:07.120Z,5.93
2023-05-19T02:23:33.581Z,3.05
2023-05-19T02:26:01.095Z,5.65
2023-05-19T02:28:28.457Z,3.78
2023-05-19T02:30:54.992Z,3.65
2023-05-19T02:33:24.614Z,3.50
2023-05-19T02:35:51.158Z,5.20
2023-05-19T02:38:18.125Z,3.80
2023-05-19T02:40:44.599Z,3.95
2023-05-19T02:43:11.115Z,3.85
2023-05-19T02:45:37.577Z,4.07
2023-05-19T02:48:04.385Z,3.72
2023-05-19T02:50:31.043Z,5.18
2023-05-19T02:52:57.640Z,5.32
2023-05-19T02:55:24.240Z,4.72
2023-05-19T02:57:50.837Z,4.78
2023-05-19T03:00:20.143Z,3.75
2023-05-19T03:02:46.926Z,3.22
2023-05-19T03:05:14.402Z,3.92
2023-05-19T03:07:40.900Z,4.97
2023-05-19T03:10:08.458Z,5.03
2023-05-19T03:12:35.030Z,6.05
2023-05-19T03:15:01.616Z,4.05
2023-05-19T03:17:33.573Z,3.83
2023-05-19T03:20:01.499Z,3.75
2023-05-19T03:22:27.975Z,5.07
2023-05-19T03:24:54.509Z,3.35
2023-05-19T03:27:21.256Z,3.60
2023-05-19T03:29:47.896Z,4.22
2023-05-19T03:32:14.463Z,3.17
2023-05-19T03:34:40.941Z,5.25
2023-05-19T03:37:07.891Z,4.68
2023-05-19T03:39:34.359Z,4.22
2023-05-19T03:42:00.908Z,6.05
2023-05-19T03:44:27.416Z,4.95
2023-05-19T03:46:53.843Z,3.30
2023-05-19T03:49:20.273Z,3.63
2023-05-19T03:51:47.012Z,3.83
2023-05-19T03:54:13.496Z,4.22
2023-05-19T03:56:41.076Z,4.28
2023-05-19T03:59:07.814Z,4.47
2023-05-19T04:01:34.251Z,4.63
2023-05-19T04:04:00.774Z,3.90
2023-05-19T04:06:27.526Z,3.75
2023-05-19T04:08:54.019Z,5.53
2023-05-19T04:11:21.460Z,6.13
2023-05-19T04:13:47.933Z,3.95
2023-05-19T04:16:14.727Z,5.75
2023-05-19T04:18:41.258Z,4.90
2023-05-19T04:21:08.670Z,3.65
2023-05-19T04:23:35.118Z,3.55
2023-05-19T04:26:02.450Z,4.20
2023-05-19T04:28:29.901Z,3.63
2023-05-19T04:30:58.526Z,3.67
2023-05-19T04:33:25.083Z,5.75
2023-05-19T04:35:51.751Z,5.95
2023-05-19T04:38:19.996Z,3.63
2023-05-19T04:40:46.536Z,4.72
2023-05-19T04:43:13.081Z,3.33
2023-05-19T04:45:42.520Z,6.00
2023-05-19T04:48:09.046Z,2.00
2023-05-19T04:50:38.544Z,3.88
2023-05-19T04:53:05.078Z,3.08
2023-05-19T04:55:32.868Z,4.57
2023-05-19T04:57:59.333Z,4.00
2023-05-19T05:00:25.988Z,3.10
2023-05-19T05:02:52.491Z,4.22
2023-05-19T05:05:19.021Z,4.30
2023-05-19T05:07:45.983Z,4.28
2023-05-19T05:10:12.486Z,7.38
2023-05-19T05:12:39.195Z,3.92
2023-05-19T05:15:07.084Z,5.45
2023-05-19T05:17:35.423Z,4.78
2023-05-19T05:20:04.530Z,7.20
2023-05-19T05:22:31.245Z,4.50
2023-05-19T05:24:58.015Z,4.63
2023-05-19T05:27:24.558Z,4.90
2023-05-19T05:29:51.678Z,5.72
2023-05-19T05:32:18.268Z,6.55
2023-05-19T05:34:45.105Z,3.15
2023-05-19T05:37:13.152Z,6.32
2023-05-19T05:39:41.086Z,9.07
2023-05-19T05:42:09.159Z,5.13
2023-05-19T05:44:35.869Z,5.93
2023-05-19T05:47:03.813Z,5.35
2023-05-19T05:49:30.941Z,5.05
2023-05-19T05:52:05.522Z,4.57
2023-05-19T05:54:33.431Z,4.03
2023-05-19T05:57:00.201Z,4.47
2023-05-19T05:59:26.632Z,4.18
2023-05-19T06:01:53.139Z,4.40
2023-05-19T06:04:21.123Z,4.00
2023-05-19T06:06:47.999Z,3.72
2023-05-19T06:09:14.512Z,5.78
2023-05-19T06:11:40.974Z,8.25
2023-05-19T06:14:07.412Z,6.07
2023-05-19T06:16:33.964Z,8.57
2023-05-19T06:19:00.652Z,7.40
2023-05-19T06:21:27.184Z,6.90
2023-05-19T06:23:53.686Z,5.03
2023-05-19T06:26:20.195Z,6.43
2023-05-19T06:28:46.701Z,6.57
2023-05-19T06:31:13.222Z,4.13
2023-05-19T06:33:39.701Z,5.30
2023-05-19T06:36:06.410Z,6.22
2023-05-19T06:38:32.921Z,7.15
2023-05-19T06:40:59.381Z,5.47
2023-05-19T06:43:25.982Z,5.55
2023-05-19T06:45:52.617Z,8.70
2023-05-19T06:48:19.071Z,8.40
2023-05-19T06:50:46.052Z,5.75
2023-05-19T06:53:12.594Z,6.43
2023-05-19T06:55:47.201Z,6.53
2023-05-19T06:58:24.473Z,5.68
2023-05-19T07:00:51.087Z,6.00
2023-05-19T07:03:18.025Z,7.43
2023-05-19T07:05:44.652Z,4.63
2023-05-19T07:08:11.101Z,5.82
2023-05-19T07:10:37.705Z,6.28
2023-05-19T07:13:04.590Z,5.00
2023-05-19T07:15:31.236Z,5.50
2023-05-19T07:17:58.468Z,6.50
2023-05-19T07:20:25.025Z,7.50
2023-05-19T07:22:51.524Z,5.15
2023-05-19T07:25:17.983Z,3.85
2023-05-19T07:27:45.685Z,5.03
2023-05-19T07:30:12.551Z,4.47
2023-05-19T07:32:39.186Z,5.82
2023-05-19T07:35:06.305Z,6.82
2023-05-19T07:37:32.816Z,3.60
2023-05-19T07:39:59.280Z,6.25
2023-05-19T07:42:25.747Z,4.78
2023-05-19T07:44:52.166Z,6.07
2023-05-19T07:47:18.647Z,5.60
2023-05-19T07:49:45.129Z,4.75
2023-05-19T07:52:11.626Z,4.72
2023-05-19T07:54:38.115Z,6.65
2023-05-19T07:57:04.682Z,10.50
2023-05-19T07:59:31.389Z,7.95
2023-05-19T08:01:58.583Z,10.88
2023-05-19T08:04:25.135Z,6.63
2023-05-19T08:06:53.058Z,7.45
2023-05-19T08:09:20.151Z,7.32
2023-05-19T08:11:47.050Z,5.45
2023-05-19T08:14:13.540Z,7.72
2023-05-19T08:16:42.264Z,6.47
2023-05-19T08:19:09.324Z,6.63
2023-05-19T08:21:36.645Z,4.50
2023-05-19T08:24:03.594Z,4.70
2023-05-19T08:26:30.141Z,5.07
2023-05-19T08:28:56.695Z,11.35
2023-05-19T08:31:23.598Z,9.18
2023-05-19T08:33:50.173Z,6.32
2023-05-19T08:36:17.025Z,6.55
2023-05-19T08:38:43.471Z,7.53
2023-05-19T08:41:10.746Z,5.45
2023-05-19T08:43:39.414Z,5.93
2023-05-19T08:46:08.235Z,6.20
2023-05-19T08:48:35.520Z,18.27
2023-05-19T08:51:17.870Z,20.60
2023-05-19T08:53:51.747Z,13.70
2023-05-19T08:56:25.189Z,19.20
2023-05-19T08:58:51.865Z,10.82
2023-05-19T09:01:20.023Z,12.48
2023-05-19T09:03:49.725Z,12.15
2023-05-19T09:06:16.755Z,11.80
2023-05-19T09:08:43.846Z,9.00
2023-05-19T09:11:10.765Z,8.60
2023-05-19T09:13:37.277Z,9.27
2023-05-19T09:16:03.967Z,9.80
2023-05-19T09:18:30.556Z,7.53
2023-05-19T09:21:02.445Z,8.93
2023-05-19T09:23:31.690Z,8.75
2023-05-19T09:25:58.276Z,8.05
2023-05-19T09:28:30.573Z,12.48
2023-05-19T09:31:01.191Z,8.05
2023-05-19T09:33:28.614Z,4.90
2023-05-19T09:35:56.803Z,5.95
2023-05-19T09:38:27.087Z,6.80
2023-05-19T09:40:57.294Z,5.05
2023-05-19T09:43:23.972Z,8.15
2023-05-19T09:46:01.113Z,11.65
2023-05-19T09:48:27.981Z,7.32
2023-05-19T09:50:54.989Z,5.13
2023-05-19T09:53:22.381Z,5.47
2023-05-19T09:55:49.914Z,5.95
2023-05-19T09:58:18.381Z,5.53
2023-05-19T10:00:51.448Z,6.40
2023-05-19T10:03:18.905Z,9.18
2023-05-19T10:05:46.381Z,5.38
2023-05-19T10:08:14.261Z,7.93
2023-05-19T10:10:41.434Z,8.77
2023-05-19T10:13:07.961Z,6.63
2023-05-19T10:15:40.835Z,5.55
2023-05-19T10:18:15.628Z,6.78
2023-05-19T10:20:42.577Z,7.47
2023-05-19T10:23:09.054Z,6.13
2023-05-19T10:25:36.526Z,5.22
2023-05-19T10:28:11.471Z,11.20
2023-05-19T10:30:51.251Z,6.38
2023-05-19T10:33:21.123Z,5.60
2023-05-19T10:36:09.061Z,4.47
2023-05-19T10:38:50.458Z,5.40
2023-05-19T10:41:26.920Z,5.35
2023-05-19T10:44:17.719Z,5.93
2023-05-19T10:46:44.346Z,6.50
2023-05-19T10:49:10.940Z,7.63
2023-05-19T10:51:37.389Z,8.10
2023-05-19T10:54:14.377Z,5.85
2023-05-19T10:56:45.771Z,4.65
2023-05-19T10:59:32.477Z,6.43
2023-05-19T11:02:08.288Z,3.58
2023-05-19T11:04:51.274Z,4.28
2023-05-19T11:07:20.370Z,5.47
2023-05-19T11:09:54.319Z,5.13
2023-05-19T11:12:25.450Z,3.58
2023-05-19T11:14:55.503Z,6.35
2023-05-19T11:17:24.591Z,4.28
2023-05-19T11:19:55.908Z,7.40
2023-05-19T11:22:27.159Z,5.43
2023-05-19T11:24:57.428Z,4.47
2023-05-19T11:27:34.628Z,6.68
2023-05-19T11:30:02.227Z,4.55
2023-05-19T11:32:30.539Z,3.00
2023-05-19T11:34:57.981Z,7.18
2023-05-19T11:37:24.634Z,4.22
2023-05-19T11:39:52.272Z,4.70
2023-05-19T11:42:19.846Z,3.08
2023-05-19T11:44:46.831Z,3.75
2023-05-19T11:47:14.533Z,5.78
2023-05-19T11:49:54.807Z,4.40
2023-05-19T11:52:23.196Z,2.90
2023-05-19T11:54:49.828Z,5.68
2023-05-19T11:57:16.759Z,3.63
2023-05-19T11:59:48.143Z,5.13
2023-05-19T12:02:19.941Z,5.00
2023-05-19T12:04:49.859Z,5.43
2023-05-19T12:07:18.451Z,3.08
2023-05-19T12:09:48.158Z,5.00
2023-05-19T12:12:17.014Z,5.10
2023-05-19T12:14:43.870Z,4.93
2023-05-19T12:17:15.002Z,4.32
2023-05-19T12:19:44.887Z,2.55
2023-05-19T12:22:12.500Z,4.97
2023-05-19T12:24:40.077Z,3.47
2023-05-19T12:27:16.879Z,4.35
2023-05-19T12:29:43.395Z,4.57
2023-05-19T12:32:10.134Z,2.85
2023-05-19T12:34:38.276Z,5.43
2023-05-19T12:37:06.082Z,4.10
2023-05-19T12:39:33.769Z,3.55
2023-05-19T12:42:11.305Z,6.80
2023-05-19T12:44:52.687Z,4.50
2023-05-19T12:47:20.325Z,5.32
2023-05-19T12:49:57.120Z,5.07
2023-05-19T12:52:24.231Z,4.38
2023-05-19T12:55:02.057Z,4.07
2023-05-19T12:57:32.117Z,5.03
2023-05-19T13:00:06.818Z,3.35
2023-05-19T13:02:36.164Z,3.13
2023-05-19T13:05:04.898Z,3.17
2023-05-19T13:07:31.423Z,5.43
2023-05-19T13:09:58.660Z,2.13
2023-05-19T13:12:26.064Z,4.25
2023-05-19T13:14:55.416Z,3.17
2023-05-19T13:17:22.319Z,6.22
2023-05-19T13:19:48.845Z,4.07
2023-05-19T13:22:15.359Z,2.92
2023-05-19T13:24:41.784Z,2.88
2023-05-19T13:27:08.430Z,4.72
2023-05-19T13:29:36.131Z,3.45
2023-05-19T13:32:02.571Z,3.70
2023-05-19T13:34:29.274Z,3.58
2023-05-19T13:36:56.067Z,3.88
2023-05-19T13:39:22.566Z,4.65
2023-05-19T13:41:49.198Z,3.45
2023-05-19T13:44:16.779Z,5.78
2023-05-19T13:46:45.670Z,3.50
2023-05-19T13:49:13.417Z,4.60
2023-05-19T13:51:43.486Z,2.65
2023-05-19T13:54:10.330Z,4.10
2023-05-19T13:56:36.974Z,4.75
2023-05-19T13:59:04.116Z,3.80
2023-05-19T14:01:30.804Z,3.53
2023-05-19T14:03:57.561Z,3.30
2023-05-19T14:06:24.545Z,4.00
2023-05-19T14:08:51.197Z,4.28
2023-05-19T14:11:19.741Z,6.15
2023-05-19T14:13:52.482Z,4.05
2023-05-19T14:16:20.465Z,3.53
2023-05-19T14:18:47.053Z,4.38
2023-05-19T14:21:13.751Z,3.15
2023-05-19T14:23:40.193Z,4.35
2023-05-19T14:26:06.740Z,3.97
2023-05-19T14:28:33.247Z,4.78
2023-05-19T14:30:59.725Z,4.47
2023-05-19T14:33:26.207Z,3.25
2023-05-19T14:35:53.274Z,2.97
2023-05-19T14:38:19.711Z,6.80
2023-05-19T14:40:48.304Z,6.13
2023-05-19T14:43:14.829Z,3.70
2023-05-19T14:45:43.842Z,3.47
2023-05-19T14:48:13.922Z,4.28
2023-05-19T14:50:40.500Z,3.70
2023-05-19T14:53:07.433Z,4.78
2023-05-19T14:55:33.995Z,254.07
2023-05-19T14:58:00.468Z,342.83
2023-05-19T15:00:27.003Z,220.32
2023-05-19T15:02:54.164Z,193.10
2023-05-19T15:05:22.815Z,125.30
2023-05-19T15:07:49.266Z,109.20
2023-05-19T15:10:16.737Z,104.10
2023-05-19T15:12:43.253Z,91.82
2023-05-19T15:15:10.231Z,81.88
2023-05-19T15:17:36.823Z,78.05
2023-05-19T15:20:03.549Z,72.45
2023-05-19T15:22:30.035Z,66.65
2023-05-19T15:24:56.507Z,72.13
2023-05-19T15:27:23.430Z,54.50
2023-05-19T15:29:49.880Z,50.42
2023-05-19T15:32:16.440Z,52.92
2023-05-19T15:34:42.951Z,46.58
2023-05-19T15:37:09.495Z,44.28
2023-05-19T15:39:36.042Z,45.92
2023-05-19T15:42:02.564Z,39.58
2023-05-19T15:44:29.991Z,43.78
2023-05-19T15:46:56.499Z,37.05
2023-05-19T15:49:25.064Z,34.80
2023-05-19T15:51:51.839Z,37.75
2023-05-19T15:54:18.647Z,32.13
2023-05-19T15:56:45.203Z,34.97
2023-05-19T15:59:11.669Z,29.40
2023-05-19T16:01:38.293Z,33.28
2023-05-19T16:04:05.076Z,27.70
2023-05-19T16:06:31.653Z,24.48
2023-05-19T16:08:58.160Z,27.67
2023-05-19T16:11:24.665Z,26.50
2023-05-19T16:13:51.103Z,21.75
2023-05-19T16:16:18.793Z,22.23
2023-05-19T16:18:45.475Z,25.00
2023-05-19T16:21:12.016Z,26.23
2023-05-19T16:23:38.551Z,19.52
2023-05-19T16:26:05.075Z,20.95
2023-05-19T16:28:32.431Z,21.05
2023-05-19T16:31:00.202Z,21.67
2023-05-19T16:33:27.914Z,16.77
2023-05-19T16:35:54.407Z,21.10
2023-05-19T16:38:21.003Z,17.00
2023-05-19T16:40:47.797Z,21.83
2023-05-19T16:43:14.432Z,19.30
2023-05-19T16:45:40.957Z,16.65
2023-05-19T16:48:07.705Z,19.85
2023-05-19T16:50:34.761Z,17.90
2023-05-19T16:53:01.302Z,14.70
2023-05-19T16:55:27.767Z,15.02
2023-05-19T16:57:54.284Z,14.48
2023-05-19T17:00:20.971Z,18.23
2023-05-19T17:02:48.060Z,12.38
2023-05-19T17:05:14.681Z,14.43
2023-05-19T17:07:41.179Z,10.27
2023-05-19T17:10:08.316Z,15.80
2023-05-19T17:12:34.766Z,14.13
2023-05-19T17:15:01.536Z,11.13
2023-05-19T17:17:28.076Z,12.88
2023-05-19T17:19:54.710Z,13.95
2023-05-19T17:22:21.188Z,10.80
2023-05-19T17:24:47.984Z,13.55
2023-05-19T17:27:15.084Z,11.00
2023-05-19T17:29:41.637Z,18.13
2023-05-19T17:32:08.253Z,9.25
2023-05-19T17:34:34.726Z,9.10
2023-05-19T17:37:01.451Z,11.77
2023-05-19T17:39:28.036Z,11.57
2023-05-19T17:41:54.477Z,9.27
2023-05-19T17:44:21.336Z,11.35
2023-05-19T17:46:47.994Z,10.10
2023-05-19T17:49:15.385Z,13.57
2023-05-19T17:51:42.093Z,15.52
2023-05-19T17:54:08.889Z,13.00
2023-05-19T17:56:40.845Z,9.40
2023-05-19T17:59:07.613Z,12.52
2023-05-19T18:01:34.249Z,11.32
2023-05-19T18:04:01.527Z,9.02
2023-05-19T18:06:29.361Z,13.93
2023-05-19T18:08:58.910Z,6.53
2023-05-19T18:11:28.604Z,10.90
2023-05-19T18:13:55.176Z,11.18
2023-05-19T18:16:21.694Z,9.15
2023-05-19T18:18:50.412Z,8.55
2023-05-19T18:21:18.082Z,5.38
2023-05-19T18:23:45.679Z,8.52
2023-05-19T18:26:15.890Z,7.25
2023-05-19T18:28:42.401Z,8.18
2023-05-19T18:31:09.359Z,4.10
2023-05-19T18:33:35.891Z,6.82
2023-05-19T18:36:02.367Z,6.30
2023-05-19T18:38:28.845Z,5.05
2023-05-19T18:40:56.745Z,9.95
2023-05-19T18:43:23.578Z,8.38
2023-05-19T18:45:50.143Z,6.78
2023-05-19T18:48:16.709Z,8.60
2023-05-19T18:50:44.608Z,4.85
2023-05-19T18:53:11.802Z,6.75
2023-05-19T18:55:38.659Z,6.95
2023-05-19T18:58:06.127Z,4.55
2023-05-19T19:00:33.126Z,4.60
2023-05-19T19:03:00.098Z,5.70
2023-05-19T19:05:26.629Z,5.38
2023-05-19T19:07:53.392Z,7.18
2023-05-19T19:10:20.085Z,6.95
2023-05-19T19:12:46.762Z,5.63
2023-05-19T19:15:13.262Z,5.05
2023-05-19T19:17:43.612Z,4.70
2023-05-19T19:20:10.639Z,4.93
2023-05-19T19:22:37.198Z,4.95
2023-05-19T19:25:03.840Z,5.45
2023-05-19T19:27:31.405Z,5.20
2023-05-19T19:29:58.635Z,4.88
2023-05-19T19:32:25.512Z,5.30
2023-05-19T19:34:53.307Z,4.50
2023-05-19T19:37:19.887Z,5.57
2023-05-19T19:39:46.698Z,3.97
2023-05-19T19:42:13.169Z,3.72
2023-05-19T19:44:39.711Z,4.30
2023-05-19T19:47:06.486Z,3.33
2023-05-19T19:49:33.524Z,5.60
2023-05-19T19:52:00.032Z,5.00
2023-05-19T19:54:26.471Z,4.63
2023-05-19T19:56:52.924Z,6.35
2023-05-19T19:59:19.694Z,7.35
2023-05-19T20:01:46.219Z,4.70
2023-05-19T20:04:12.908Z,3.65
2023-05-19T20:06:39.528Z,4.45
2023-05-19T20:09:06.788Z,7.40
2023-05-19T20:11:33.270Z,4.60
2023-05-19T20:13:59.724Z,5.03
2023-05-19T20:16:26.449Z,5.45
2023-05-19T20:18:53.085Z,4.22
2023-05-19T20:21:19.578Z,3.63
2023-05-19T20:23:46.279Z,4.88
2023-05-19T20:26:13.619Z,3.45
2023-05-19T20:28:40.484Z,5.07
2023-05-19T20:31:07.368Z,4.57
2023-05-19T20:33:33.995Z,4.65
2023-05-19T20:36:00.485Z,4.05
2023-05-19T20:38:27.238Z,2.80
2023-05-19T20:40:54.468Z,4.43
2023-05-19T20:43:21.254Z,4.50
2023-05-19T20:45:47.910Z,4.57
2023-05-19T20:48:15.930Z,5.15
2023-05-19T20:50:42.703Z,3.22
2023-05-19T20:53:09.222Z,4.43
2023-05-19T20:55:38.603Z,5.13
2023-05-19T20:58:05.466Z,4.07
2023-05-19T21:00:32.518Z,3.72
2023-05-19T21:02:59.427Z,5.30
2023-05-19T21:05:26.122Z,3.05
2023-05-19T21:07:52.594Z,5.45
2023-05-19T21:10:19.062Z,4.15
2023-05-19T21:12:46.411Z,4.00
2023-05-19T21:15:13.066Z,2.83
2023-05-19T21:17:39.599Z,4.63
2023-05-19T21:20:06.545Z,3.25
2023-05-19T21:22:33.060Z,4.47
2023-05-19T21:24:59.495Z,3.45
2023-05-19T21:27:26.135Z,4.95
2023-05-19T21:29:54.222Z,3.75
2023-05-19T21:32:21.435Z,3.97
2023-05-19T21:34:47.918Z,3.55
2023-05-19T21:37:18.358Z,4.10
2023-05-19T21:39:45.072Z,4.15
2023-05-19T21:42:11.592Z,5.93
2023-05-19T21:44:38.091Z,2.78
2023-05-19T21:47:04.622Z,3.15
2023-05-19T21:49:31.372Z,5.40
2023-05-19T21:51:57.983Z,4.80
2023-05-19T21:54:24.670Z,3.97
2023-05-19T21:56:51.147Z,4.53
2023-05-19T21:59:17.875Z,4.78
2023-05-19T22:01:44.481Z,4.45
2023-05-19T22:04:11.465Z,4.63
2023-05-19T22:06:37.989Z,3.28
2023-05-19T22:09:04.561Z,6.30
2023-05-19T22:11:31.043Z,4.55
2023-05-19T22:13:57.541Z,3.80
2023-05-19T22:16:24.048Z,4.38
2023-05-19T22:18:50.676Z,6.72
2023-05-19T22:21:17.363Z,4.25
2023-05-19T22:23:44.021Z,4.25
2023-05-19T22:26:10.547Z,3.58
2023-05-19T22:28:36.989Z,5.00
2023-05-19T22:31:04.227Z,3.63
2023-05-19T22:33:30.963Z,4.93
2023-05-19T22:35:57.845Z,4.72
2023-05-19T22:38:24.435Z,5.55
2023-05-19T22:40:51.019Z,3.60
2023-05-19T22:43:20.707Z,4.13
2023-05-19T22:45:48.284Z,4.50
2023-05-19T22:48:14.821Z,5.20
2023-05-19T22:50:41.367Z,4.53
2023-05-19T22:53:07.800Z,4.95
2023-05-19T22:55:34.472Z,7.95
2023-05-19T22:58:01.267Z,4.97
2023-05-19T23:00:27.712Z,6.53
2023-05-19T23:02:54.358Z,3.35
2023-05-19T23:05:20.945Z,6.43
2023-05-19T23:07:50.448Z,5.65
2023-05-19T23:10:16.895Z,3.95
2023-05-19T23:12:43.325Z,5.07
2023-05-19T23:15:10.962Z,3.97
2023-05-19T23:17:37.646Z,4.20
2023-05-19T23:20:04.469Z,4.07
2023-05-19T23:22:30.909Z,5.88
2023-05-19T23:24:57.505Z,5.05
2023-05-19T23:27:23.981Z,5.32
2023-05-19T23:29:51.279Z,3.88
2023-05-19T23:32:17.958Z,5.05
2023-05-19T23:34:44.395Z,3.72
2023-05-19T23:37:11.733Z,5.05
2023-05-19T23:39:38.415Z,4.25
2023-05-19T23:42:05.756Z,5.22
2023-05-19T23:44:32.221Z,5.43
2023-05-19T23:46:58.743Z,4.15
2023-05-19T23:49:25.316Z,5.22
2023-05-19T23:51:51.998Z,3.45
2023-05-19T23:54:18.461Z,3.50
2023-05-19T23:56:44.891Z,4.95
2023-05-19T23:59:11.371Z,4.18
